Time;durP1;ratioP1;P1;durP2;ratioP2;P2;SDS_P1;SDS_P2;PMS_P1;PMS_P2;Temp;Humidity;BMP_temperature;BMP_pressure;BME280_temperature;BME280_humidity;BME280_pressure;Samples;Min_cycle;Max_cycle;Signal;HPM_P1;HPM_P2
2023/07/03 00:00:29;;;;;;;14.05;7.10;;;15.30;99.90;;;;;;5019190;28;88506;-36
2023/07/03 00:02:54;;;;;;;12.10;6.30;;;15.30;99.90;;;;;;5018298;28;90804;-36
2023/07/03 00:05:21;;;;;;;18.02;8.60;;;15.30;99.90;;;;;;5019795;28;89809;-33
2023/07/03 00:07:47;;;;;;;13.85;5.95;;;15.30;99.90;;;;;;5019848;28;88555;-33
2023/07/03 00:10:13;;;;;;;10.40;7.30;;;15.30;99.90;;;;;;5018540;28;87596;-32
2023/07/03 00:12:39;;;;;;;14.52;7.22;;;15.30;99.90;;;;;;5019691;28;89466;-37
2023/07/03 00:15:05;;;;;;;12.30;7.35;;;15.30;99.90;;;;;;5018946;28;89707;-37
2023/07/03 00:17:31;;;;;;;18.25;7.80;;;15.30;99.90;;;;;;5019680;28;88481;-33
2023/07/03 00:19:57;;;;;;;19.27;8.52;;;15.30;99.90;;;;;;5020583;28;89505;-32
2023/07/03 00:22:23;;;;;;;15.27;8.05;;;15.30;99.90;;;;;;5004310;28;90342;-34
2023/07/03 00:24:49;;;;;;;17.10;7.32;;;15.30;99.90;;;;;;5019305;28;90126;-33
2023/07/03 00:27:15;;;;;;;11.65;6.22;;;15.30;99.90;;;;;;5018754;28;88015;-34
2023/07/03 00:29:40;;;;;;;16.85;8.23;;;15.30;99.90;;;;;;5019562;28;90203;-32
2023/07/03 00:32:06;;;;;;;19.48;7.18;;;15.30;99.90;;;;;;5019310;28;89073;-37
2023/07/03 00:34:32;;;;;;;15.30;8.35;;;15.30;99.90;;;;;;5000980;28;91399;-33
2023/07/03 00:36:58;;;;;;;10.60;7.28;;;15.30;99.90;;;;;;5001113;28;88472;-33
2023/07/03 00:39:24;;;;;;;19.13;8.93;;;15.40;99.90;;;;;;5019129;28;87808;-34
2023/07/03 00:41:50;;;;;;;15.95;6.75;;;15.30;99.90;;;;;;5003026;28;90146;-33
2023/07/03 00:44:18;;;;;;;20.38;8.90;;;15.40;99.90;;;;;;5018848;28;90072;-32
2023/07/03 00:46:45;;;;;;;;;;;15.40;99.90;;;;;;5020883;28;87682;-32
2023/07/03 00:49:11;;;;;;;21.10;8.75;;;15.40;99.90;;;;;;5023152;28;88018;-35
2023/07/03 00:51:44;;;;;;;20.58;7.57;;;15.40;99.90;;;;;;5022581;28;89447;-33
2023/07/03 00:54:10;;;;;;;16.63;7.57;;;15.40;99.90;;;;;;5021944;28;89156;-36
2023/07/03 00:56:36;;;;;;;21.08;9.95;;;15.40;99.90;;;;;;5022434;28;88018;-33
2023/07/03 00:59:03;;;;;;;17.48;7.43;;;15.40;99.90;;;;;;5022097;28;89090;-36
2023/07/03 01:01:37;;;;;;;18.58;7.60;;;15.40;99.90;;;;;;5021079;28;90337;-34
2023/07/03 01:04:03;;;;;;;19.15;7.38;;;15.40;99.90;;;;;;5022519;28;90072;-34
2023/07/03 01:06:35;;;;;;;23.23;8.13;;;15.40;99.90;;;;;;5021343;28;89755;-34
2023/07/03 01:09:02;;;;;;;15.40;7.63;;;15.40;99.90;;;;;;5022477;28;89146;-36
2023/07/03 01:11:29;;;;;;;16.52;8.10;;;15.40;99.90;;;;;;5020936;28;90831;-32
2023/07/03 01:13:57;;;;;;;14.07;6.88;;;15.40;99.90;;;;;;5022349;28;90049;-37
2023/07/03 01:16:23;;;;;;;15.05;8.75;;;15.40;99.90;;;;;;5009223;28;89589;-37
2023/07/03 01:18:53;;;;;;;18.08;7.20;;;15.40;99.90;;;;;;5022083;28;87656;-35
2023/07/03 01:21:42;;;;;;;18.13;7.82;;;15.30;99.90;;;;;;5021159;28;91103;-33
2023/07/03 01:24:12;;;;;;;19.50;7.18;;;15.40;99.90;;;;;;5020687;28;89953;-33
2023/07/03 01:26:41;;;;;;;25.27;8.57;;;15.40;99.90;;;;;;5021950;28;90359;-36
2023/07/03 01:29:07;;;;;;;15.52;7.28;;;15.40;99.90;;;;;;5003357;28;88235;-36
2023/07/03 01:31:35;;;;;;;14.55;8.38;;;15.40;99.90;;;;;;5021967;28;90288;-36
2023/07/03 01:34:02;;;;;;;14.88;7.60;;;15.40;99.90;;;;;;5021530;28;89560;-34
2023/07/03 01:36:30;;;;;;;13.57;6.63;;;15.40;99.90;;;;;;5022114;28;87656;-36
2023/07/03 01:38:58;;;;;;;16.08;7.70;;;15.40;99.90;;;;;;5022010;28;89613;-32
2023/07/03 01:41:26;;;;;;;20.98;8.45;;;15.40;99.90;;;;;;5021294;28;91000;-34
2023/07/03 01:43:52;;;;;;;14.40;8.23;;;15.40;99.90;;;;;;5021957;28;88964;-38
2023/07/03 01:46:18;;;;;;;17.25;7.32;;;15.40;99.90;;;;;;5021352;28;87572;-33
2023/07/03 01:48:44;;;;;;;17.25;7.43;;;15.40;99.90;;;;;;5021814;28;88138;-33
2023/07/03 01:51:18;;;;;;;24.67;8.05;;;15.40;99.90;;;;;;5021117;28;90024;-37
2023/07/03 01:53:53;;;;;;;16.45;7.80;;;15.40;99.90;;;;;;5003552;28;91581;-36
2023/07/03 01:56:24;;;;;;;14.73;6.25;;;15.40;99.90;;;;;;5020905;28;90114;-39
2023/07/03 01:59:20;;;;;;;19.45;9.18;;;15.40;99.90;;;;;;5021824;28;89825;-37
2023/07/03 02:02:03;;;;;;;18.58;7.10;;;15.40;99.90;;;;;;5018801;28;89639;-41
2023/07/03 02:04:37;;;;;;;29.48;8.32;;;15.40;99.90;;;;;;5020350;28;89449;-36
2023/07/03 02:07:05;;;;;;;14.48;7.38;;;15.40;99.90;;;;;;5021671;28;89465;-40
2023/07/03 02:09:31;;;;;;;15.10;7.60;;;15.40;99.90;;;;;;5021887;28;89095;-38
2023/07/03 02:11:57;;;;;;;21.33;8.43;;;15.40;99.90;;;;;;5021377;28;91145;-38
2023/07/03 02:14:24;;;;;;;15.63;7.88;;;15.40;99.90;;;;;;5002672;28;89585;-38
2023/07/03 02:16:51;;;;;;;15.77;7.40;;;15.40;99.90;;;;;;5022234;28;88013;-34
2023/07/03 02:19:17;;;;;;;11.15;6.88;;;15.40;99.90;;;;;;5021033;28;89154;-36
2023/07/03 02:21:46;;;;;;;16.85;7.53;;;15.40;99.90;;;;;;5021469;28;90453;-41
2023/07/03 02:24:12;;;;;;;19.13;8.13;;;15.40;99.90;;;;;;5021355;28;89382;-34
2023/07/03 02:26:38;;;;;;;17.08;7.95;;;15.40;99.90;;;;;;5021267;28;89574;-38
2023/07/03 02:29:04;;;;;;;16.63;8.10;;;15.40;99.90;;;;;;5021013;28;88767;-35
2023/07/03 02:31:30;;;;;;;20.00;7.07;;;15.40;99.90;;;;;;5022099;28;89995;-34
2023/07/03 02:33:56;;;;;;;17.70;7.53;;;15.40;99.90;;;;;;5021096;28;90134;-35
2023/07/03 02:36:24;;;;;;;16.80;7.50;;;15.40;99.90;;;;;;5020959;28;89754;-40
2023/07/03 02:38:49;;;;;;;21.65;8.32;;;15.40;99.90;;;;;;5020948;28;89418;-36
2023/07/03 02:41:15;;;;;;;25.60;8.25;;;15.40;99.90;;;;;;5020514;28;90504;-36
2023/07/03 02:43:41;;;;;;;13.57;8.23;;;15.40;99.90;;;;;;5020903;28;89863;-41
2023/07/03 02:46:08;;;;;;;15.35;7.28;;;15.40;99.90;;;;;;5020766;28;88976;-39
2023/07/03 02:48:34;;;;;;;15.23;7.57;;;15.40;99.90;;;;;;5008097;28;87976;-34
2023/07/03 02:50:59;;;;;;;21.73;8.65;;;15.40;99.90;;;;;;5020124;28;90759;-36
2023/07/03 02:53:25;;;;;;;17.63;7.82;;;15.40;99.90;;;;;;5020098;28;90209;-35
2023/07/03 02:55:53;;;;;;;15.65;7.07;;;15.40;99.90;;;;;;5020637;28;88790;-37
2023/07/03 02:58:19;;;;;;;22.90;9.02;;;15.40;99.90;;;;;;5020006;28;90016;-35
2023/07/03 03:00:46;;;;;;;21.77;7.68;;;15.40;99.90;;;;;;5020847;28;90511;-35
2023/07/03 03:03:13;;;;;;;15.02;8.70;;;15.40;99.90;;;;;;5019449;28;89155;-35
2023/07/03 03:05:39;;;;;;;22.90;7.95;;;15.40;99.90;;;;;;5021328;28;88199;-35
2023/07/03 03:08:05;;;;;;;21.38;8.43;;;15.40;99.90;;;;;;5019395;28;89558;-36
2023/07/03 03:10:31;;;;;;;21.90;7.35;;;15.40;99.90;;;;;;5020513;28;91324;-36
2023/07/03 03:12:56;;;;;;;20.70;9.02;;;15.50;99.90;;;;;;5020161;28;89618;-38
2023/07/03 03:15:22;;;;;;;15.25;7.43;;;15.40;99.90;;;;;;5020503;28;88489;-39
2023/07/03 03:17:48;;;;;;;20.05;8.05;;;15.50;99.90;;;;;;5019812;28;87583;-36
2023/07/03 03:20:14;;;;;;;18.95;7.82;;;15.40;99.90;;;;;;5019598;28;91430;-36
2023/07/03 03:22:42;;;;;;;20.17;7.80;;;15.50;99.90;;;;;;5020183;28;89364;-35
2023/07/03 03:25:08;;;;;;;21.50;8.13;;;15.50;99.90;;;;;;5020021;28;89542;-38
2023/07/03 03:27:34;;;;;;;20.40;7.57;;;15.40;99.90;;;;;;5020400;28;88940;-38
2023/07/03 03:30:00;;;;;;;21.10;7.57;;;15.40;99.90;;;;;;5020164;28;90022;-37
2023/07/03 03:32:26;;;;;;;22.10;8.20;;;15.40;99.90;;;;;;5020416;28;88312;-35
2023/07/03 03:34:52;;;;;;;20.55;7.63;;;15.50;99.90;;;;;;5020438;28;89612;-38
2023/07/03 03:37:18;;;;;;;18.83;8.15;;;15.50;99.90;;;;;;5018942;28;87687;-39
2023/07/03 03:39:43;;;;;;;15.68;7.55;;;15.50;99.90;;;;;;5018887;28;91667;-34
2023/07/03 03:42:09;;;;;;;23.17;6.85;;;15.50;99.90;;;;;;5019006;28;89960;-34
2023/07/03 03:44:35;;;;;;;18.25;7.32;;;15.50;99.90;;;;;;5020697;28;87736;-37
2023/07/03 03:47:02;;;;;;;16.35;7.60;;;15.50;99.90;;;;;;5019952;28;89025;-35
2023/07/03 03:49:29;;;;;;;15.82;8.20;;;15.40;99.90;;;;;;5019237;28;89847;-41
2023/07/03 03:51:54;;;;;;;12.13;6.65;;;15.50;99.90;;;;;;5019109;28;89621;-38
2023/07/03 03:54:20;;;;;;;17.02;7.60;;;15.40;99.90;;;;;;5019025;28;88869;-36
2023/07/03 03:56:46;;;;;;;10.48;5.72;;;15.40;99.90;;;;;;5020263;28;89378;-35
2023/07/03 03:59:12;;;;;;;16.95;7.07;;;15.40;99.90;;;;;;5019714;28;90094;-36
2023/07/03 04:01:38;;;;;;;12.48;6.88;;;15.40;99.90;;;;;;5019362;28;90073;-35
2023/07/03 04:04:04;;;;;;;16.77;6.72;;;15.40;99.90;;;;;;5019583;28;87977;-36
2023/07/03 04:06:30;;;;;;;14.57;6.50;;;15.40;99.90;;;;;;5019005;28;89205;-35
2023/07/03 04:08:58;;;;;;;17.98;7.78;;;15.30;99.90;;;;;;5019442;28;90103;-40
2023/07/03 04:11:25;;;;;;;;;;;15.30;99.90;;;;;;5020228;28;90068;-37
2023/07/03 04:13:50;;;;;;;13.35;7.30;;;15.30;99.90;;;;;;5003130;28;88028;-38
2023/07/03 04:16:16;;;;;;;17.77;6.40;;;15.30;99.90;;;;;;5019334;28;89781;-35
2023/07/03 04:18:41;;;;;;;24.33;6.60;;;15.30;99.90;;;;;;5019867;28;90279;-35
2023/07/03 04:21:07;;;;;;;23.20;7.20;;;15.30;99.90;;;;;;5021282;27;89713;-34
2023/07/03 04:23:33;;;;;;;19.67;6.93;;;15.30;99.90;;;;;;5023799;28;87603;-35
2023/07/03 04:25:59;;;;;;;13.63;6.05;;;15.30;99.90;;;;;;5023366;28;89531;-37
2023/07/03 04:28:25;;;;;;;24.80;8.50;;;15.20;99.90;;;;;;5022458;28;89994;-41
2023/07/03 04:30:50;;;;;;;16.05;7.85;;;15.20;99.90;;;;;;5022939;28;90449;-38
2023/07/03 04:33:16;;;;;;;16.55;7.57;;;15.30;99.90;;;;;;5022492;28;88050;-38
2023/07/03 04:35:42;;;;;;;15.55;6.55;;;15.30;99.90;;;;;;5024040;28;90684;-37
2023/07/03 04:38:08;;;;;;;14.55;6.78;;;15.40;99.90;;;;;;5022001;28;90371;-35
2023/07/03 04:40:34;;;;;;;12.98;7.25;;;15.50;99.90;;;;;;5056828;22;89554;-40
2023/07/03 04:43:00;;;;;;;21.52;6.60;;;15.60;99.90;;;;;;5004715;28;88744;-38
2023/07/03 04:45:27;;;;;;;16.40;6.03;;;15.80;99.90;;;;;;5022862;28;88984;-34
2023/07/03 04:47:53;;;;;;;22.95;7.07;;;16.00;99.90;;;;;;5023120;28;90508;-34
2023/07/03 04:50:20;;;;;;;15.05;6.32;;;16.20;99.90;;;;;;5022134;28;89619;-39
2023/07/03 04:52:48;;;;;;;13.48;5.65;;;16.40;99.90;;;;;;5022255;28;89509;-36
2023/07/03 04:55:14;;;;;;;;;;;16.70;99.90;;;;;;5022912;28;89448;-41
2023/07/03 04:57:42;;;;;;;12.98;5.55;;;16.80;99.90;;;;;;5024453;28;89831;-36
2023/07/03 05:00:14;;;;;;;12.60;6.13;;;16.90;99.90;;;;;;5022094;28;89610;-37
2023/07/03 05:02:44;;;;;;;16.40;6.45;;;16.90;99.90;;;;;;5005068;28;89565;-34
2023/07/03 05:05:11;;;;;;;12.27;5.75;;;16.90;99.90;;;;;;5022131;28;88442;-37
2023/07/03 05:07:38;;;;;;;18.63;6.65;;;17.10;99.90;;;;;;5020326;28;90203;-36
2023/07/03 05:10:04;;;;;;;12.75;4.50;;;17.00;99.90;;;;;;4992649;28;89526;-35
2023/07/03 05:12:29;;;;;;;12.02;6.07;;;17.30;99.90;;;;;;5022335;28;89218;-38
2023/07/03 05:14:56;;;;;;;10.00;4.85;;;17.50;99.90;;;;;;5021709;28;87696;-37
2023/07/03 05:17:22;;;;;;;10.40;5.50;;;17.80;99.90;;;;;;5021130;28;89992;-39
2023/07/03 05:19:48;;;;;;;13.20;4.95;;;17.90;99.90;;;;;;5022767;28;89582;-36
2023/07/03 05:22:14;;;;;;;11.27;4.80;;;17.80;99.90;;;;;;5022113;28;90120;-38
2023/07/03 05:24:40;;;;;;;12.77;4.47;;;17.70;99.90;;;;;;5023070;28;89119;-41
2023/07/03 05:27:06;;;;;;;21.27;4.95;;;17.70;99.90;;;;;;5021831;28;90577;-37
2023/07/03 05:29:32;;;;;;;10.85;4.55;;;17.50;99.90;;;;;;5021535;28;89692;-36
2023/07/03 05:32:00;;;;;;;11.88;3.70;;;17.50;99.90;;;;;;5021513;27;90107;-40
2023/07/03 05:34:29;;;;;;;10.43;3.80;;;17.40;99.90;;;;;;5022225;28;88060;-35
2023/07/03 05:36:56;;;;;;;9.88;4.30;;;17.50;99.90;;;;;;5022284;28;90179;-38
2023/07/03 05:39:22;;;;;;;7.72;3.72;;;17.60;99.90;;;;;;5011981;28;89399;-35
2023/07/03 05:41:47;;;;;;;14.98;4.15;;;17.90;99.90;;;;;;5021170;28;88103;-37
2023/07/03 05:44:13;;;;;;;8.93;4.43;;;17.90;99.90;;;;;;5021716;28;88507;-36
2023/07/03 05:46:39;;;;;;;9.27;4.35;;;18.10;99.90;;;;;;5021648;28;89908;-36
2023/07/03 05:49:04;;;;;;;11.80;3.67;;;18.20;99.90;;;;;;5022577;28;89788;-36
2023/07/03 05:51:30;;;;;;;8.27;3.78;;;18.40;99.90;;;;;;5020387;28;88464;-38
2023/07/03 05:53:56;;;;;;;6.72;3.65;;;18.50;99.90;;;;;;5003853;28;88096;-36
2023/07/03 05:56:21;;;;;;;8.27;3.95;;;18.80;99.90;;;;;;5020672;28;90331;-39
2023/07/03 05:58:47;;;;;;;10.60;3.47;;;18.80;99.90;;;;;;5021920;28;89770;-36
2023/07/03 06:01:12;;;;;;;10.05;3.22;;;18.70;99.90;;;;;;5019016;28;88236;-37
2023/07/03 06:03:42;;;;;;;10.80;3.30;;;18.80;99.90;;;;;;5018381;28;89553;-37
2023/07/03 06:06:08;;;;;;;11.52;3.38;;;18.90;99.90;;;;;;5018735;28;90174;-36
2023/07/03 06:08:34;;;;;;;10.40;3.13;;;18.80;99.90;;;;;;5011088;28;89672;-34
2023/07/03 06:10:59;;;;;;;6.97;3.03;;;18.60;99.90;;;;;;4996522;28;88807;-36
2023/07/03 06:13:25;;;;;;;4.90;2.97;;;19.00;99.90;;;;;;5020414;28;89226;-36
2023/07/03 06:15:51;;;;;;;6.25;2.72;;;18.80;99.90;;;;;;5000312;28;90556;-35
2023/07/03 06:18:16;;;;;;;10.05;3.65;;;18.90;99.90;;;;;;5019136;28;89600;-40
2023/07/03 06:20:42;;;;;;;10.27;3.13;;;18.60;99.90;;;;;;5018952;28;90171;-40
2023/07/03 06:23:08;;;;;;;9.85;3.25;;;18.90;99.90;;;;;;5018738;28;89175;-39
2023/07/03 06:25:34;;;;;;;9.30;3.47;;;18.70;99.90;;;;;;5019224;28;90431;-35
2023/07/03 06:28:00;;;;;;;8.55;3.15;;;19.10;99.90;;;;;;5018807;28;89615;-36
2023/07/03 06:30:26;;;;;;;9.43;3.63;;;19.30;99.90;;;;;;5019007;28;89166;-37
2023/07/03 06:32:52;;;;;;;6.78;2.97;;;19.10;99.90;;;;;;5019444;28;87845;-35
2023/07/03 06:35:17;;;;;;;9.85;3.10;;;19.50;99.90;;;;;;5019321;28;89637;-36
2023/07/03 06:37:43;;;;;;;8.98;2.40;;;19.70;99.90;;;;;;5019520;28;89894;-38
2023/07/03 06:40:10;;;;;;;10.23;3.22;;;19.70;99.90;;;;;;5017662;28;88335;-38
2023/07/03 06:42:37;;;;;;;8.37;2.97;;;19.80;99.90;;;;;;5017873;28;90369;-40
2023/07/03 06:45:03;;;;;;;4.93;2.90;;;19.50;99.90;;;;;;5018437;28;91048;-33
2023/07/03 06:47:29;;;;;;;9.77;3.45;;;19.70;99.90;;;;;;5018440;28;90439;-35
2023/07/03 06:49:55;;;;;;;9.18;2.22;;;19.50;99.90;;;;;;5018337;28;89932;-35
2023/07/03 06:52:20;;;;;;;5.28;2.67;;;19.60;99.90;;;;;;5019329;28;88369;-31
2023/07/03 06:54:47;;;;;;;8.02;2.60;;;19.70;99.90;;;;;;5017856;28;90662;-36
2023/07/03 06:57:13;;;;;;;7.97;3.08;;;19.70;99.90;;;;;;5019017;28;89456;-37
2023/07/03 06:59:39;;;;;;;11.20;3.13;;;20.00;99.90;;;;;;4999912;28;89261;-37
2023/07/03 07:02:06;;;;;;;3.60;2.28;;;20.10;99.90;;;;;;5018542;28;87724;-33
2023/07/03 07:04:32;;;;;;;4.67;2.60;;;20.40;99.90;;;;;;5017661;28;90601;-33
2023/07/03 07:06:58;;;;;;;7.18;2.40;;;20.30;99.90;;;;;;4999536;28;88377;-34
2023/07/03 07:09:23;;;;;;;4.72;2.17;;;20.50;99.90;;;;;;5017683;28;90335;-40
2023/07/03 07:11:49;;;;;;;5.72;2.63;;;20.60;99.90;;;;;;5019590;28;89637;-34
2023/07/03 07:14:14;;;;;;;131.05;24.88;;;20.70;98.70;;;;;;5014666;28;90850;-36
2023/07/03 07:16:42;;;;;;;14.55;2.75;;;20.40;99.90;;;;;;5007465;28;89616;-32
2023/07/03 07:19:09;;;;;;;4.20;2.83;;;20.00;99.90;;;;;;5017554;28;88752;-33
2023/07/03 07:21:43;;;;;;;5.13;2.63;;;19.80;99.90;;;;;;5018438;28;89617;-33
2023/07/03 07:24:19;;;;;;;3.78;2.38;;;19.70;99.90;;;;;;5018029;28;88948;-32
2023/07/03 07:26:45;;;;;;;8.45;3.47;;;19.50;99.90;;;;;;5017584;28;89558;-38
2023/07/03 07:29:11;;;;;;;11.27;2.70;;;19.30;99.90;;;;;;5018089;28;89756;-38
2023/07/03 07:31:37;;;;;;;5.32;3.22;;;19.10;99.90;;;;;;5018253;28;88865;-36
2023/07/03 07:34:06;;;;;;;7.30;2.33;;;19.00;99.90;;;;;;5017832;28;89910;-37
2023/07/03 07:36:32;;;;;;;6.95;3.08;;;19.10;99.90;;;;;;5018447;28;89904;-33
2023/07/03 07:39:00;;;;;;;6.32;3.00;;;19.20;99.90;;;;;;5017848;28;88490;-39
2023/07/03 07:41:26;;;;;;;5.03;2.37;;;19.00;99.90;;;;;;5017834;28;89013;-34
2023/07/03 07:43:52;;;;;;;15.70;3.38;;;18.70;99.90;;;;;;5017550;28;90563;-35
2023/07/03 07:46:19;;;;;;;3.47;2.55;;;18.80;99.90;;;;;;5017579;28;89937;-39
2023/07/03 07:48:47;;;;;;;9.27;2.78;;;18.50;99.90;;;;;;5000189;28;88286;-34
2023/07/03 07:51:13;;;;;;;7.18;2.65;;;18.60;99.90;;;;;;5003692;28;90024;-35
2023/07/03 07:53:39;;;;;;;4.50;2.35;;;18.90;99.90;;;;;;5017390;28;89523;-35
2023/07/03 07:56:07;;;;;;;8.52;3.15;;;19.20;99.90;;;;;;5017331;27;90017;-33
2023/07/03 07:58:33;;;;;;;;;;;19.70;99.90;;;;;;5018151;28;88846;-33
2023/07/03 08:00:58;;;;;;;4.97;3.28;;;20.20;99.90;;;;;;5019065;28;88307;-38
2023/07/03 08:03:25;;;;;;;8.98;2.40;;;20.60;99.90;;;;;;5017147;28;90445;-34
2023/07/03 08:06:00;;;;;;;9.88;3.55;;;20.20;97.30;;;;;;5017805;28;88854;-36
2023/07/03 08:08:27;;;;;;;11.35;3.33;;;20.00;99.40;;;;;;5012421;28;88065;-34
2023/07/03 08:10:59;;;;;;;4.07;2.47;;;20.00;99.60;;;;;;5017920;28;88545;-33
2023/07/03 08:13:25;;;;;;;6.97;2.80;;;20.20;99.40;;;;;;5017388;28;90709;-33
2023/07/03 08:15:51;;;;;;;4.90;3.00;;;20.20;99.90;;;;;;5017009;28;90668;-38
2023/07/03 08:18:18;;;;;;;8.02;2.67;;;20.20;98.00;;;;;;5016968;28;87620;-34
2023/07/03 08:20:44;;;;;;;2.50;1.90;;;19.70;91.30;;;;;;4999728;28;89965;-33
2023/07/03 08:23:10;;;;;;;3.03;2.33;;;19.30;91.70;;;;;;5016857;28;89294;-34
2023/07/03 08:25:36;;;;;;;5.45;2.63;;;19.30;96.80;;;;;;5017450;28;90837;-35
2023/07/03 08:28:02;;;;;;;11.52;2.20;;;19.30;97.60;;;;;;5017499;28;89256;-34
2023/07/03 08:30:28;;;;;;;3.75;2.42;;;19.10;99.90;;;;;;5017053;28;89582;-33
2023/07/03 08:32:54;;;;;;;5.35;1.98;;;19.10;99.80;;;;;;5017897;28;91212;-34
2023/07/03 08:35:20;;;;;;;4.25;1.70;;;19.20;99.10;;;;;;5016853;28;90184;-38
2023/07/03 08:37:45;;;;;;;6.38;2.17;;;19.40;99.90;;;;;;5016548;28;89353;-34
2023/07/03 08:40:16;;;;;;;3.15;1.75;;;19.90;98.40;;;;;;5016314;28;87795;-36
2023/07/03 08:42:50;;;;;;;2.53;1.55;;;20.20;91.20;;;;;;5017617;28;90434;-35
2023/07/03 08:45:17;;;;;;;2.80;1.25;;;20.50;82.70;;;;;;5015588;28;89753;-34
2023/07/03 08:47:46;;;;;;;5.05;1.50;;;20.80;82.70;;;;;;5017402;28;89409;-35
2023/07/03 08:50:16;;;;;;;7.10;1.77;;;21.00;76.40;;;;;;5012814;28;88802;-35
2023/07/03 08:52:49;;;;;;;1.63;1.33;;;21.10;76.90;;;;;;5017101;28;90613;-34
2023/07/03 08:55:20;;;;;;;5.93;1.65;;;20.80;78.00;;;;;;5016488;28;89028;-35
2023/07/03 08:57:45;;;;;;;2.00;1.23;;;20.90;75.00;;;;;;5017222;28;89939;-37
2023/07/03 09:00:12;;;;;;;2.20;1.13;;;20.40;73.10;;;;;;5017141;28;88835;-39
2023/07/03 09:02:45;;;;;;;3.53;1.30;;;20.20;74.00;;;;;;4998663;28;90083;-33
2023/07/03 09:05:25;;;;;;;2.97;2.08;;;20.10;75.10;;;;;;5016639;28;88958;-38
2023/07/03 09:07:55;;;;;;;5.97;2.22;;;20.00;79.80;;;;;;5012050;28;87582;-37
2023/07/03 09:10:35;;;;;;;2.63;1.30;;;19.90;83.80;;;;;;5009812;28;88314;-33
2023/07/03 09:13:16;;;;;;;3.28;1.75;;;19.90;79.80;;;;;;5018917;28;90895;-32
2023/07/03 09:15:53;;;;;;;1.88;1.30;;;19.40;82.70;;;;;;5019581;28;90297;-34
2023/07/03 09:18:26;;;;;;;4.77;1.40;;;19.30;91.30;;;;;;5019192;28;88753;-37
2023/07/03 09:20:52;;;;;;;7.88;2.00;;;19.20;92.40;;;;;;5002196;28;88593;-33
2023/07/03 09:23:26;;;;;;;8.70;2.88;;;19.20;90.70;;;;;;5019588;28;90147;-34
2023/07/03 09:26:00;;;;;;;3.88;1.98;;;19.20;94.40;;;;;;5019474;28;90360;-34
2023/07/03 09:28:26;;;;;;;3.15;1.85;;;18.90;99.90;;;;;;5019017;28;89225;-34
2023/07/03 09:30:53;;;;;;;5.05;2.20;;;18.80;99.90;;;;;;5020486;28;87782;-34
2023/07/03 09:33:19;;;;;;;4.03;1.43;;;18.90;99.90;;;;;;5019668;28;90271;-35
2023/07/03 09:35:47;;;;;;;5.43;2.88;;;18.70;99.90;;;;;;5019786;28;89638;-34
2023/07/03 09:38:35;;;;;;;3.20;2.03;;;18.80;99.90;;;;;;5019454;28;88346;-33
2023/07/03 09:41:04;;;;;;;15.60;2.13;;;19.00;99.90;;;;;;5020733;28;90327;-35
2023/07/03 09:43:30;;;;;;;4.00;1.70;;;18.90;99.90;;;;;;5019618;28;90144;-37
2023/07/03 09:46:09;;;;;;;6.80;2.38;;;18.80;99.90;;;;;;5019283;28;88567;-36
2023/07/03 09:48:36;;;;;;;5.68;2.60;;;18.80;99.90;;;;;;5006654;28;88501;-35
2023/07/03 09:51:06;;;;;;;5.28;2.08;;;19.00;99.90;;;;;;5018634;28;88321;-36
2023/07/03 09:53:36;;;;;;;7.45;2.53;;;19.20;99.90;;;;;;5001505;28;92159;-35
2023/07/03 09:56:02;;;;;;;5.90;1.70;;;19.20;99.90;;;;;;5019898;28;89807;-38
2023/07/03 09:58:29;;;;;;;3.38;1.95;;;19.40;99.90;;;;;;5019178;28;89059;-35
2023/07/03 10:00:57;;;;;;;8.45;2.53;;;19.80;99.90;;;;;;5019135;28;88809;-33
2023/07/03 10:03:26;;;;;;;7.22;2.00;;;19.60;99.90;;;;;;5008138;28;92869;-36
2023/07/03 10:05:53;;;;;;;6.10;3.10;;;19.60;95.50;;;;;;5018254;28;87750;-33
2023/07/03 10:08:23;;;;;;;7.23;2.57;;;19.50;92.20;;;;;;5011029;28;89875;-35
2023/07/03 10:10:51;;;;;;;5.30;2.40;;;19.60;94.30;;;;;;5017199;28;87740;-35
2023/07/03 10:13:37;;;;;;;5.30;2.67;;;19.70;91.20;;;;;;5018428;28;90892;-39
2023/07/03 10:16:04;;;;;;;9.43;2.28;;;20.20;90.70;;;;;;5015691;28;90111;-37
2023/07/03 10:18:37;;;;;;;9.85;2.55;;;20.00;86.80;;;;;;5000591;28;88394;-39
2023/07/03 10:21:08;;;;;;;6.22;2.15;;;20.10;84.80;;;;;;5018440;28;88771;-34
2023/07/03 10:23:39;;;;;;;11.82;2.60;;;20.00;86.80;;;;;;5018400;28;89235;-38
2023/07/03 10:26:17;;;;;;;6.45;1.70;;;20.10;87.30;;;;;;4983706;28;89472;-34
2023/07/03 10:28:52;;;;;;;5.38;2.17;;;19.80;85.10;;;;;;5014034;28;88996;-38
2023/07/03 10:31:29;;;;;;;4.55;1.77;;;20.40;89.50;;;;;;5000535;28;89041;-35
2023/07/03 10:34:01;;;;;;;4.80;1.42;;;20.60;81.90;;;;;;4987232;28;91250;-36
2023/07/03 10:36:29;;;;;;;9.32;2.13;;;20.50;81.20;;;;;;5018010;28;90717;-34
2023/07/03 10:39:04;;;;;;;2.90;1.90;;;20.50;78.50;;;;;;5017846;28;89403;-35
2023/07/03 10:41:40;;;;;;;7.03;2.33;;;20.70;71.00;;;;;;5018218;28;90024;-38
2023/07/03 10:44:23;;;;;;;10.90;2.60;;;20.70;68.00;;;;;;5019073;28;90898;-33
2023/07/03 10:47:11;;;;;;;4.85;1.98;;;20.20;70.40;;;;;;5017202;28;90930;-38
2023/07/03 10:49:39;;;;;;;9.00;1.55;;;19.90;73.20;;;;;;5017145;28;89736;-36
2023/07/03 10:52:05;;;;;;;8.60;2.17;;;19.80;75.50;;;;;;5018757;28;88181;-32
2023/07/03 10:54:41;;;;;;;6.90;1.80;;;19.50;78.40;;;;;;5010895;28;90390;-33
2023/07/03 10:57:16;;;;;;;3.95;1.60;;;19.60;80.00;;;;;;4987757;28;88892;-34
2023/07/03 10:59:49;;;;;;;5.90;1.90;;;19.40;80.70;;;;;;4987208;28;89966;-37
2023/07/03 11:02:28;;;;;;;3.83;1.70;;;19.50;83.70;;;;;;4999668;28;89329;-33
2023/07/03 11:04:53;;;;;;;;;;;19.40;82.00;;;;;;5017445;28;89839;-34
2023/07/03 11:07:37;;;;;;;4.57;2.10;;;19.40;82.50;;;;;;5019473;28;90137;-33
2023/07/03 11:10:22;;;;;;;4.38;2.13;;;19.50;88.30;;;;;;5005624;28;88633;-35
2023/07/03 11:13:32;;;;;;;4.07;1.92;;;19.70;83.40;;;;;;5017747;28;88272;-35
2023/07/03 11:16:12;;;;;;;7.15;2.53;;;19.70;84.50;;;;;;5013955;28;90330;-36
2023/07/03 11:18:55;;;;;;;3.97;2.55;;;19.50;87.90;;;;;;5016546;28;89849;-37
2023/07/03 11:21:29;;;;;;;4.45;1.55;;;19.30;88.80;;;;;;5007315;28;89194;-35
2023/07/03 11:24:08;;;;;;;4.68;2.33;;;19.30;85.00;;;;;;4998771;28;88958;-35
2023/07/03 11:26:39;;;;;;;5.60;2.22;;;19.20;88.80;;;;;;5017930;28;89471;-33
2023/07/03 11:29:07;;;;;;;8.48;2.05;;;19.10;90.50;;;;;;5016030;27;90005;-37
2023/07/03 11:31:34;;;;;;;5.88;2.10;;;19.10;92.10;;;;;;5017424;28;88997;-33
2023/07/03 11:34:02;;;;;;;4.05;1.90;;;19.00;92.90;;;;;;5017925;28;90119;-33
2023/07/03 11:36:42;;;;;;;3.45;1.13;;;18.80;91.60;;;;;;5017754;28;90231;-35
2023/07/03 11:39:13;;;;;;;2.13;1.92;;;18.80;91.90;;;;;;4989130;28;90229;-36
2023/07/03 11:41:49;;;;;;;8.85;2.28;;;18.70;93.00;;;;;;4990215;28;90398;-38
2023/07/03 11:44:37;;;;;;;4.05;1.70;;;18.50;95.20;;;;;;4997255;28;89007;-33
2023/07/03 11:47:13;;;;;;;3.30;1.70;;;18.60;94.90;;;;;;4996312;28;90669;-34
2023/07/03 11:49:47;;;;;;;5.03;1.90;;;18.90;99.40;;;;;;4996021;28;90404;-37
2023/07/03 11:52:22;;;;;;;5.38;2.28;;;19.30;93.00;;;;;;4998392;28;88166;-34
2023/07/03 11:55:05;;;;;;;5.65;2.00;;;19.60;93.00;;;;;;4996503;28;88741;-33
2023/07/03 11:57:33;;;;;;;5.03;1.45;;;19.80;87.10;;;;;;4996904;28;90536;-35
2023/07/03 12:00:27;;;;;;;2.45;1.20;;;19.70;86.50;;;;;;4997012;28;89210;-36
2023/07/03 12:03:03;;;;;;;4.10;1.95;;;20.10;89.40;;;;;;4996090;28;88242;-34
2023/07/03 12:08:18;;;;;;;4.05;1.48;;;20.30;75.80;;;;;;4989173;28;90408;-39
2023/07/03 12:11:04;;;;;;;1.42;1.13;;;20.20;76.40;;;;;;4990393;28;89746;-34
2023/07/03 12:13:34;;;;;;;4.90;1.40;;;20.10;75.60;;;;;;4995941;28;89972;-36
2023/07/03 12:16:03;;;;;;;5.63;2.13;;;20.00;76.50;;;;;;4995966;28;89243;-37
2023/07/03 12:18:29;;;;;;;7.63;1.38;;;19.90;77.20;;;;;;4996185;28;90328;-34
2023/07/03 12:21:03;;;;;;;7.10;2.10;;;19.80;80.00;;;;;;4996783;28;89616;-37
2023/07/03 12:23:41;;;;;;;3.33;1.73;;;19.70;79.40;;;;;;4997305;28;89065;-34
2023/07/03 12:26:10;;;;;;;6.63;2.03;;;19.60;79.50;;;;;;4993399;28;88333;-36
2023/07/03 12:28:36;;;;;;;3.50;1.50;;;19.30;79.20;;;;;;4996215;28;90446;-36
2023/07/03 12:31:15;;;;;;;3.58;1.48;;;19.20;82.90;;;;;;4996229;28;89632;-35
2023/07/03 12:33:57;;;;;;;3.55;1.55;;;19.20;85.30;;;;;;4996709;28;88849;-35
2023/07/03 12:36:26;;;;;;;5.10;1.48;;;19.30;89.60;;;;;;4987107;28;88968;-35
2023/07/03 12:38:53;;;;;;;4.65;1.85;;;19.30;86.10;;;;;;4997271;28;90550;-35
2023/07/03 12:41:44;;;;;;;5.72;1.95;;;19.60;91.50;;;;;;5018383;27;89029;-34
2023/07/03 12:44:11;;;;;;;5.15;1.73;;;20.00;86.60;;;;;;5015993;28;87905;-34
2023/07/03 12:46:44;;;;;;;8.90;2.22;;;20.10;74.00;;;;;;5019809;28;89201;-37
2023/07/03 12:49:15;;;;;;;5.93;1.58;;;20.20;73.30;;;;;;5019386;28;90124;-33
2023/07/03 12:51:53;;;;;;;3.38;1.77;;;20.20;70.10;;;;;;5019382;28;90130;-37
2023/07/03 12:54:21;;;;;;;4.00;2.03;;;20.30;71.40;;;;;;5019663;28;88709;-33